createdAt,value
2023-05-22T00:02:13.009Z,13.00
2023-05-22T00:04:41.442Z,13.00
2023-05-22T00:07:09.900Z,13.00
2023-05-22T00:09:38.249Z,13.00
2023-05-22T00:12:07.058Z,13.10
2023-05-22T00:14:35.312Z,13.10
2023-05-22T00:17:04.206Z,13.10
2023-05-22T00:19:33.854Z,13.00
2023-05-22T00:22:02.275Z,12.90
2023-05-22T00:24:30.491Z,13.00
2023-05-22T00:26:58.745Z,13.00
2023-05-22T00:29:27.096Z,12.90
2023-05-22T00:31:55.582Z,12.90
2023-05-22T00:34:23.830Z,12.90
2023-05-22T00:36:53.729Z,13.00
2023-05-22T00:39:22.560Z,13.00
2023-05-22T00:41:50.834Z,12.90
2023-05-22T00:44:19.293Z,13.00
2023-05-22T00:46:48.110Z,13.00
2023-05-22T00:49:16.460Z,13.10
2023-05-22T00:51:45.004Z,13.10
2023-05-22T00:54:15.228Z,13.10
2023-05-22T00:56:44.352Z,13.10
2023-05-22T00:59:12.999Z,13.10
2023-05-22T01:01:42.913Z,13.10
2023-05-22T01:04:13.761Z,13.10
2023-05-22T01:06:42.183Z,13.10
2023-05-22T01:09:10.540Z,13.00
2023-05-22T01:11:52.381Z,13.10
2023-05-22T01:14:29.998Z,13.10
2023-05-22T01:17:08.953Z,13.20
2023-05-22T01:20:01.360Z,13.30
2023-05-22T01:22:58.616Z,13.30
2023-05-22T01:25:49.350Z,13.20
2023-05-22T01:28:38.689Z,13.20
2023-05-22T01:31:11.503Z,13.30
2023-05-22T01:33:45.065Z,13.30
2023-05-22T01:36:14.216Z,13.40
2023-05-22T01:38:43.911Z,13.40
2023-05-22T01:41:13.008Z,13.30
2023-05-22T01:43:41.368Z,13.40
2023-05-22T01:46:11.377Z,13.30
2023-05-22T01:48:40.136Z,13.40
2023-05-22T01:51:14.734Z,13.30
2023-05-22T01:53:49.176Z,13.30
2023-05-22T01:56:22.465Z,13.30
2023-05-22T01:58:58.108Z,13.30
2023-05-22T02:01:31.130Z,13.30
2023-05-22T02:04:00.431Z,13.30
2023-05-22T02:06:33.362Z,13.30
2023-05-22T02:09:03.817Z,13.30
2023-05-22T02:11:35.057Z,13.40
2023-05-22T02:14:03.671Z,13.40
2023-05-22T02:16:33.879Z,13.40
2023-05-22T02:19:06.457Z,13.40
2023-05-22T02:21:35.722Z,13.30
2023-05-22T02:24:04.544Z,13.30
2023-05-22T02:26:32.906Z,13.30
2023-05-22T02:29:01.532Z,13.30
2023-05-22T02:31:29.917Z,13.30
2023-05-22T02:33:59.492Z,13.30
2023-05-22T02:36:28.149Z,13.40
2023-05-22T02:38:56.562Z,13.40
2023-05-22T02:41:24.936Z,13.40
2023-05-22T02:43:53.517Z,13.40
2023-05-22T02:46:21.920Z,13.40
2023-05-22T02:48:50.293Z,13.40
2023-05-22T02:51:20.407Z,13.50
2023-05-22T02:53:48.556Z,13.50
2023-05-22T02:56:16.968Z,13.50
2023-05-22T02:58:45.536Z,13.50
2023-05-22T03:01:13.888Z,13.60
2023-05-22T03:03:43.876Z,13.60
2023-05-22T03:06:12.932Z,13.60
2023-05-22T03:08:44.391Z,13.70
2023-05-22T03:11:12.958Z,13.70
2023-05-22T03:13:41.456Z,13.70
2023-05-22T03:16:09.942Z,13.60
2023-05-22T03:18:38.692Z,13.60
2023-05-22T03:21:07.706Z,13.60
2023-05-22T03:23:35.970Z,13.60
2023-05-22T03:26:05.786Z,13.60
2023-05-22T03:28:34.115Z,13.50
2023-05-22T03:31:02.373Z,13.50
2023-05-22T03:33:30.962Z,13.50
2023-05-22T03:35:59.350Z,13.50
2023-05-22T03:38:27.708Z,13.40
2023-05-22T03:40:56.104Z,13.50
2023-05-22T03:43:25.981Z,13.50
2023-05-22T03:45:54.232Z,13.40
2023-05-22T03:48:22.643Z,13.30
2023-05-22T03:50:51.227Z,13.30
2023-05-22T03:53:19.411Z,13.30
2023-05-22T03:55:47.621Z,13.20
2023-05-22T03:58:16.010Z,13.30
2023-05-22T04:00:46.291Z,13.20
2023-05-22T04:03:14.581Z,13.30
2023-05-22T04:05:43.102Z,13.30
2023-05-22T04:08:11.710Z,13.40
2023-05-22T04:10:40.284Z,13.50
2023-05-22T04:13:08.935Z,13.60
2023-05-22T04:15:37.526Z,13.50
2023-05-22T04:18:07.197Z,13.40
2023-05-22T04:20:35.996Z,13.40
2023-05-22T04:23:04.618Z,13.40
2023-05-22T04:25:34.364Z,13.40
2023-05-22T04:28:04.277Z,13.40
2023-05-22T04:30:34.056Z,13.40
2023-05-22T04:33:02.443Z,13.60
2023-05-22T04:35:32.370Z,13.50
2023-05-22T04:38:02.286Z,13.50
2023-05-22T04:40:33.884Z,13.60
2023-05-22T04:43:03.520Z,13.60
2023-05-22T04:45:33.128Z,13.60
2023-05-22T04:48:02.818Z,13.60
2023-05-22T04:50:32.994Z,13.40
2023-05-22T04:53:04.729Z,13.40
2023-05-22T04:55:35.028Z,13.40
2023-05-22T04:58:03.248Z,13.30
2023-05-22T05:00:31.504Z,13.30
2023-05-22T05:03:00.525Z,13.50
2023-05-22T05:05:28.973Z,13.50
2023-05-22T05:07:58.739Z,13.50
2023-05-22T05:10:27.190Z,13.60
2023-05-22T05:12:55.383Z,13.70
2023-05-22T05:15:24.389Z,13.70
2023-05-22T05:17:52.759Z,13.70
2023-05-22T05:20:21.762Z,13.70
2023-05-22T05:22:50.206Z,13.80
2023-05-22T05:25:19.867Z,13.80
2023-05-22T05:27:48.025Z,13.70
2023-05-22T05:30:18.248Z,13.80
2023-05-22T05:32:48.395Z,13.90
2023-05-22T05:35:16.777Z,13.90
2023-05-22T05:37:45.028Z,14.00
2023-05-22T05:40:14.416Z,14.00
2023-05-22T05:42:45.836Z,14.00
2023-05-22T05:45:15.344Z,14.00
2023-05-22T05:47:43.794Z,14.00
2023-05-22T05:50:15.528Z,14.10
2023-05-22T05:52:44.083Z,14.10
2023-05-22T05:55:12.447Z,14.10
2023-05-22T05:57:41.185Z,14.20
2023-05-22T06:00:12.225Z,14.10
2023-05-22T06:02:40.602Z,14.30
2023-05-22T06:05:09.923Z,14.20
2023-05-22T06:07:39.914Z,14.30
2023-05-22T06:10:09.580Z,14.30
2023-05-22T06:12:37.757Z,14.30
2023-05-22T06:15:07.531Z,14.30
2023-05-22T06:17:38.215Z,14.20
2023-05-22T06:20:07.306Z,14.30
2023-05-22T06:22:36.032Z,14.20
2023-05-22T06:25:05.123Z,14.20
2023-05-22T06:27:33.538Z,14.20
2023-05-22T06:30:03.713Z,14.20
2023-05-22T06:32:33.102Z,14.30
2023-05-22T06:35:03.401Z,14.30
2023-05-22T06:37:33.071Z,14.40
2023-05-22T06:40:01.323Z,14.50
2023-05-22T06:42:30.093Z,14.60
2023-05-22T06:44:58.257Z,14.70
2023-05-22T06:47:26.471Z,14.80
2023-05-22T06:49:55.159Z,14.80
2023-05-22T06:52:24.701Z,14.70
2023-05-22T06:54:52.868Z,14.70
2023-05-22T06:57:21.626Z,14.60
2023-05-22T06:59:49.838Z,14.70
2023-05-22T07:02:18.020Z,14.70
2023-05-22T07:04:46.788Z,14.90
2023-05-22T07:07:15.136Z,14.80
2023-05-22T07:09:44.708Z,14.80
2023-05-22T07:12:13.736Z,14.70
2023-05-22T07:14:42.280Z,14.80
2023-05-22T07:17:10.484Z,14.90
2023-05-22T07:19:38.805Z,15.00
2023-05-22T07:22:06.967Z,15.20
2023-05-22T07:24:35.185Z,15.20
2023-05-22T07:27:05.732Z,15.30
2023-05-22T07:29:33.926Z,15.40
2023-05-22T07:32:02.260Z,15.50
2023-05-22T07:34:33.342Z,15.50
2023-05-22T07:37:02.008Z,15.50
2023-05-22T07:39:30.148Z,15.40
2023-05-22T07:41:59.523Z,15.40
2023-05-22T07:44:30.491Z,15.40
2023-05-22T07:46:59.724Z,15.50
2023-05-22T07:49:27.977Z,15.60
2023-05-22T07:51:56.160Z,15.80
2023-05-22T07:54:24.878Z,15.70
2023-05-22T07:56:56.311Z,15.80
2023-05-22T07:59:25.628Z,15.60
2023-05-22T08:01:58.040Z,15.70
2023-05-22T08:04:27.051Z,15.70
2023-05-22T08:06:55.700Z,15.80
2023-05-22T08:09:24.035Z,15.90
2023-05-22T08:11:52.606Z,15.80
2023-05-22T08:14:22.871Z,15.90
2023-05-22T08:16:51.091Z,15.80
2023-05-22T08:19:21.184Z,15.80
2023-05-22T08:21:49.550Z,15.90
2023-05-22T08:24:17.813Z,16.00
2023-05-22T08:26:46.192Z,16.00
2023-05-22T08:29:14.344Z,16.00
2023-05-22T08:31:42.515Z,16.00
2023-05-22T08:34:11.310Z,16.10
2023-05-22T08:36:40.966Z,16.20
2023-05-22T08:39:12.096Z,16.30
2023-05-22T08:41:40.854Z,16.30
2023-05-22T08:44:09.010Z,16.00
2023-05-22T08:46:38.269Z,16.10
2023-05-22T08:49:07.166Z,16.10
2023-05-22T08:51:37.651Z,16.10
2023-05-22T08:54:08.643Z,16.20
2023-05-22T08:56:39.819Z,16.20
2023-05-22T08:59:12.608Z,16.30
2023-05-22T09:01:41.113Z,16.20
2023-05-22T09:04:09.780Z,16.30
2023-05-22T09:06:38.753Z,16.50
2023-05-22T09:09:08.338Z,16.50
2023-05-22T09:11:36.753Z,16.70
2023-05-22T09:14:09.450Z,16.70
2023-05-22T09:16:46.777Z,16.70
2023-05-22T09:19:16.059Z,16.70
2023-05-22T09:21:45.852Z,16.80
2023-05-22T09:24:16.079Z,16.90
2023-05-22T09:26:44.395Z,17.10
2023-05-22T09:29:12.647Z,17.20
2023-05-22T09:31:43.942Z,17.40
2023-05-22T09:34:14.400Z,17.40
2023-05-22T09:36:43.093Z,17.40
2023-05-22T09:39:11.323Z,17.30
2023-05-22T09:41:41.737Z,17.30
2023-05-22T09:44:17.129Z,17.50
2023-05-22T09:46:47.947Z,17.70
2023-05-22T09:49:17.469Z,17.80
2023-05-22T09:51:49.281Z,17.90
2023-05-22T09:54:19.960Z,18.10
2023-05-22T09:56:51.309Z,18.20
2023-05-22T09:59:23.725Z,18.40
2023-05-22T10:01:53.808Z,18.50
2023-05-22T10:04:25.127Z,18.60
2023-05-22T10:06:55.172Z,18.90
2023-05-22T10:09:26.263Z,19.10
2023-05-22T10:11:58.344Z,19.10
2023-05-22T10:14:28.917Z,19.20
2023-05-22T10:17:02.162Z,19.30
2023-05-22T10:19:33.224Z,19.50
2023-05-22T10:22:02.540Z,19.50
2023-05-22T10:24:31.746Z,19.50
2023-05-22T10:27:01.908Z,19.60
2023-05-22T10:29:35.398Z,19.70
2023-05-22T10:32:07.795Z,19.60
2023-05-22T10:34:43.484Z,19.70
2023-05-22T10:37:23.368Z,19.80
2023-05-22T10:40:02.056Z,19.90
2023-05-22T10:42:32.938Z,19.80
2023-05-22T10:45:02.266Z,19.90
2023-05-22T10:47:30.620Z,19.90
2023-05-22T10:50:08.572Z,19.80
2023-05-22T10:52:37.193Z,19.80
2023-05-22T10:55:08.349Z,19.90
2023-05-22T10:57:39.552Z,20.00
2023-05-22T11:00:13.221Z,20.20
2023-05-22T11:02:46.489Z,20.20
2023-05-22T11:05:37.217Z,20.30
2023-05-22T11:08:47.367Z,20.40
2023-05-22T11:11:15.825Z,20.40
2023-05-22T11:13:45.407Z,20.40
2023-05-22T11:16:14.063Z,20.40
2023-05-22T11:18:43.277Z,20.40
2023-05-22T11:21:13.751Z,20.50
2023-05-22T11:23:43.082Z,20.50
2023-05-22T11:26:28.318Z,20.40
2023-05-22T11:29:00.767Z,20.20
2023-05-22T11:31:31.379Z,20.10
2023-05-22T11:33:59.758Z,20.30
2023-05-22T11:36:29.789Z,20.40
2023-05-22T11:39:00.057Z,20.40
2023-05-22T11:41:33.853Z,20.50
2023-05-22T11:44:03.940Z,20.40
2023-05-22T11:46:32.284Z,20.40
2023-05-22T11:49:01.019Z,20.40
2023-05-22T11:51:29.619Z,20.40
2023-05-22T11:53:58.576Z,20.40
2023-05-22T11:56:27.161Z,20.40
2023-05-22T11:58:55.459Z,20.50
2023-05-22T12:01:25.121Z,20.40
2023-05-22T12:03:54.498Z,20.50
2023-05-22T12:06:23.090Z,20.40
2023-05-22T12:08:52.673Z,20.50
2023-05-22T12:11:21.964Z,20.60
2023-05-22T12:13:54.127Z,20.60
2023-05-22T12:16:25.332Z,20.50
2023-05-22T12:18:54.760Z,20.70
2023-05-22T12:21:23.644Z,20.80
2023-05-22T12:23:52.420Z,21.10
2023-05-22T12:26:21.536Z,21.20
2023-05-22T12:28:53.509Z,21.20
2023-05-22T12:31:22.887Z,21.20
2023-05-22T12:33:55.178Z,21.30
2023-05-22T12:36:32.357Z,21.40
2023-05-22T12:39:00.856Z,21.50
2023-05-22T12:41:29.299Z,21.60
2023-05-22T12:43:57.460Z,21.70
2023-05-22T12:46:25.881Z,21.80
2023-05-22T12:48:55.689Z,21.80
2023-05-22T12:51:24.409Z,21.80
2023-05-22T12:53:52.783Z,21.70
2023-05-22T12:56:21.913Z,21.60
2023-05-22T12:58:50.196Z,21.40
2023-05-22T13:01:18.747Z,21.30
2023-05-22T13:03:47.657Z,21.20
2023-05-22T13:06:17.756Z,21.00
2023-05-22T13:08:46.094Z,21.10
2023-05-22T13:11:14.513Z,21.20
2023-05-22T13:13:42.670Z,21.10
2023-05-22T13:16:11.724Z,21.10
2023-05-22T13:18:40.219Z,21.00
2023-05-22T13:21:08.384Z,21.00
2023-05-22T13:23:38.209Z,20.90
2023-05-22T13:26:06.831Z,20.90
2023-05-22T13:28:35.013Z,20.90
2023-05-22T13:31:03.185Z,20.70
2023-05-22T13:33:31.841Z,20.70
2023-05-22T13:36:00.082Z,20.70
2023-05-22T13:38:28.339Z,20.60
2023-05-22T13:40:58.410Z,20.60
2023-05-22T13:43:26.710Z,20.50
2023-05-22T13:45:54.875Z,20.50
2023-05-22T13:48:23.466Z,20.60
2023-05-22T13:50:51.748Z,20.50
2023-05-22T13:53:19.982Z,20.50
2023-05-22T13:55:48.367Z,20.60
2023-05-22T13:58:18.255Z,20.50
2023-05-22T14:00:46.875Z,20.50
2023-05-22T14:03:17.942Z,20.40
2023-05-22T14:05:46.553Z,20.20
2023-05-22T14:08:14.747Z,20.10
2023-05-22T14:10:43.247Z,20.10
2023-05-22T14:13:11.485Z,19.90
2023-05-22T14:15:42.565Z,20.10
2023-05-22T14:18:11.373Z,20.00
2023-05-22T14:20:39.655Z,20.00
2023-05-22T14:23:07.972Z,19.90
2023-05-22T14:25:36.478Z,19.90
2023-05-22T14:28:04.890Z,19.90
2023-05-22T14:30:33.055Z,19.90
2023-05-22T14:33:03.208Z,19.90
2023-05-22T14:35:31.401Z,19.90
2023-05-22T14:37:59.883Z,20.10
2023-05-22T14:40:28.618Z,20.20
2023-05-22T14:42:56.878Z,20.30
2023-05-22T14:45:25.168Z,20.50
2023-05-22T14:47:53.570Z,20.70
2023-05-22T14:50:23.588Z,20.80
2023-05-22T14:52:51.892Z,20.90
2023-05-22T14:55:21.166Z,21.00
2023-05-22T14:57:49.779Z,21.00
2023-05-22T15:00:18.641Z,21.00
2023-05-22T15:02:47.321Z,21.00
2023-05-22T15:05:16.207Z,20.90
2023-05-22T15:07:47.360Z,20.60
2023-05-22T15:10:17.662Z,20.60
2023-05-22T15:12:45.829Z,20.60
2023-05-22T15:15:13.985Z,20.70
2023-05-22T15:17:43.053Z,20.60
2023-05-22T15:20:12.482Z,20.70
2023-05-22T15:22:40.789Z,20.70
2023-05-22T15:25:15.335Z,20.70
2023-05-22T15:27:44.116Z,20.70
2023-05-22T15:30:13.075Z,20.90
2023-05-22T15:32:41.542Z,20.90
2023-05-22T15:35:11.766Z,20.60
2023-05-22T15:37:40.182Z,20.60
2023-05-22T15:40:12.712Z,20.60
2023-05-22T15:42:40.964Z,20.50
2023-05-22T15:45:10.219Z,20.30
2023-05-22T15:47:38.694Z,20.20
2023-05-22T15:50:07.740Z,20.10
2023-05-22T15:52:36.339Z,20.10
2023-05-22T15:55:04.766Z,20.10
2023-05-22T15:57:34.850Z,20.20
2023-05-22T16:00:03.170Z,20.30
2023-05-22T16:02:31.609Z,20.20
2023-05-22T16:05:00.172Z,20.00
2023-05-22T16:07:28.369Z,20.10
2023-05-22T16:09:56.582Z,20.00
2023-05-22T16:12:25.385Z,19.90
2023-05-22T16:15:00.141Z,20.00
2023-05-22T16:17:29.223Z,20.00
2023-05-22T16:19:57.525Z,19.80
2023-05-22T16:22:33.024Z,19.60
2023-05-22T16:25:09.974Z,19.70
2023-05-22T16:27:38.162Z,19.60
2023-05-22T16:30:09.184Z,19.40
2023-05-22T16:32:37.530Z,19.20
2023-05-22T16:35:06.433Z,18.90
2023-05-22T16:37:34.785Z,18.70
2023-05-22T16:40:03.242Z,18.60
2023-05-22T16:42:31.593Z,18.60
2023-05-22T16:44:59.885Z,18.70
2023-05-22T16:47:30.194Z,18.50
2023-05-22T16:49:58.490Z,18.50
2023-05-22T16:52:26.985Z,18.50
2023-05-22T16:54:55.755Z,18.30
2023-05-22T16:57:24.257Z,18.10
2023-05-22T16:59:52.819Z,18.20
2023-05-22T17:02:21.675Z,18.20
2023-05-22T17:04:51.325Z,18.20
2023-05-22T17:07:19.701Z,18.10
2023-05-22T17:09:48.156Z,18.10
2023-05-22T17:12:16.574Z,18.20
2023-05-22T17:14:44.887Z,17.90
2023-05-22T17:17:13.364Z,18.00
2023-05-22T17:19:41.872Z,18.00
2023-05-22T17:22:11.773Z,18.00
2023-05-22T17:24:40.187Z,18.00
2023-05-22T17:27:08.636Z,18.10
2023-05-22T17:29:37.250Z,18.20
2023-05-22T17:32:06.565Z,18.00
2023-05-22T17:34:35.111Z,17.80
2023-05-22T17:37:03.354Z,17.70
2023-05-22T17:39:33.096Z,17.70
2023-05-22T17:42:01.576Z,17.80
2023-05-22T17:44:31.022Z,18.00
2023-05-22T17:46:59.716Z,18.10
2023-05-22T17:49:28.250Z,18.10
2023-05-22T17:51:56.870Z,18.10
2023-05-22T17:54:25.434Z,18.00
2023-05-22T17:56:55.760Z,17.90
2023-05-22T17:59:24.071Z,17.70
2023-05-22T18:01:52.441Z,17.70
2023-05-22T18:04:21.152Z,17.60
2023-05-22T18:06:49.600Z,17.70
2023-05-22T18:09:18.253Z,17.90
2023-05-22T18:11:46.765Z,18.00
2023-05-22T18:14:16.418Z,18.00
2023-05-22T18:16:44.922Z,18.00
2023-05-22T18:19:13.336Z,18.00
2023-05-22T18:21:41.842Z,18.00
2023-05-22T18:24:10.308Z,18.10
2023-05-22T18:26:38.678Z,18.00
2023-05-22T18:29:07.035Z,18.10
2023-05-22T18:31:36.998Z,18.00
2023-05-22T18:34:05.374Z,17.90
2023-05-22T18:36:34.054Z,17.90
2023-05-22T18:39:02.495Z,18.00
2023-05-22T18:41:31.217Z,17.90
2023-05-22T18:43:59.753Z,17.80
2023-05-22T18:46:28.103Z,17.70
2023-05-22T18:48:57.894Z,17.60
2023-05-22T18:51:26.175Z,17.50
2023-05-22T18:53:54.934Z,17.40
2023-05-22T18:56:23.493Z,17.40
2023-05-22T18:58:51.908Z,17.30
2023-05-22T19:01:20.266Z,17.10
2023-05-22T19:03:48.884Z,16.90
2023-05-22T19:06:20.002Z,16.90
2023-05-22T19:08:48.435Z,16.80
2023-05-22T19:11:16.844Z,16.70
2023-05-22T19:13:45.265Z,16.50
2023-05-22T19:16:16.935Z,16.40
2023-05-22T19:18:48.125Z,16.30
2023-05-22T19:21:16.456Z,16.20
2023-05-22T19:23:46.838Z,16.10
2023-05-22T19:26:15.135Z,16.00
2023-05-22T19:28:43.434Z,16.00
2023-05-22T19:31:12.304Z,16.00
2023-05-22T19:33:40.674Z,15.80
2023-05-22T19:36:09.083Z,15.80
2023-05-22T19:38:37.694Z,15.60
2023-05-22T19:41:07.379Z,15.50
2023-05-22T19:43:35.616Z,15.30
2023-05-22T19:46:08.516Z,15.10
2023-05-22T19:48:37.304Z,15.10
2023-05-22T19:51:07.022Z,15.00
2023-05-22T19:53:35.792Z,15.00
2023-05-22T19:56:04.111Z,15.00
2023-05-22T19:58:33.825Z,14.90
2023-05-22T20:01:02.442Z,14.90
2023-05-22T20:03:31.152Z,14.80
2023-05-22T20:05:59.529Z,14.70
2023-05-22T20:08:28.698Z,14.70
2023-05-22T20:10:56.994Z,14.50
2023-05-22T20:13:25.311Z,14.40
2023-05-22T20:15:57.173Z,14.30
2023-05-22T20:18:25.332Z,14.20
2023-05-22T20:20:53.618Z,14.20
2023-05-22T20:23:22.002Z,14.10
2023-05-22T20:25:50.372Z,14.20
2023-05-22T20:28:18.603Z,14.30
2023-05-22T20:30:47.140Z,14.30
2023-05-22T20:33:16.850Z,14.40
2023-05-22T20:38:19.023Z,14.30
2023-05-22T20:40:50.049Z,14.20
2023-05-22T20:43:21.330Z,14.10
2023-05-22T20:45:50.662Z,14.10
2023-05-22T20:48:20.532Z,14.10
2023-05-22T20:50:50.586Z,14.10
2023-05-22T20:53:19.952Z,14.20
2023-05-22T20:55:48.345Z,14.20
2023-05-22T20:58:17.246Z,14.10
2023-05-22T21:00:46.141Z,14.10
2023-05-22T21:03:14.668Z,14.20
2023-05-22T21:05:44.291Z,14.20
2023-05-22T21:08:12.602Z,14.20
2023-05-22T21:10:41.392Z,14.10
2023-05-22T21:13:09.787Z,14.10
2023-05-22T21:15:38.204Z,14.10
2023-05-22T21:18:06.798Z,13.90
2023-05-22T21:20:34.985Z,14.00
2023-05-22T21:23:04.802Z,14.10
2023-05-22T21:25:33.185Z,14.00
2023-05-22T21:28:02.395Z,14.00
2023-05-22T21:30:31.901Z,14.00
2023-05-22T21:33:01.189Z,14.10
2023-05-22T21:35:29.782Z,14.00
2023-05-22T21:37:58.332Z,13.90
2023-05-22T21:40:28.034Z,13.80
2023-05-22T21:42:56.352Z,13.90
2023-05-22T21:45:24.936Z,13.90
2023-05-22T21:47:53.223Z,13.90
2023-05-22T21:50:21.510Z,13.80
2023-05-22T21:52:49.822Z,13.70
2023-05-22T21:55:18.341Z,13.70
2023-05-22T21:57:47.946Z,13.70
2023-05-22T22:00:17.464Z,13.70
2023-05-22T22:02:46.118Z,13.50
2023-05-22T22:05:16.188Z,13.60
2023-05-22T22:07:44.580Z,13.50
2023-05-22T22:10:13.068Z,13.40
2023-05-22T22:12:41.471Z,13.40
2023-05-22T22:15:13.363Z,13.40
2023-05-22T22:17:41.986Z,13.40
2023-05-22T22:20:11.323Z,13.50
2023-05-22T22:22:40.080Z,13.40
2023-05-22T22:25:09.106Z,13.30
2023-05-22T22:27:37.991Z,13.30
2023-05-22T22:30:07.322Z,13.30
2023-05-22T22:32:37.281Z,13.30
2023-05-22T22:35:06.134Z,13.30
2023-05-22T22:37:34.519Z,13.30
2023-05-22T22:40:05.353Z,13.30
2023-05-22T22:42:33.626Z,13.30
2023-05-22T22:45:02.566Z,13.20
2023-05-22T22:47:31.129Z,13.30
2023-05-22T22:50:00.962Z,13.40
2023-05-22T22:52:29.721Z,13.40
2023-05-22T22:54:57.991Z,13.40
2023-05-22T22:57:26.230Z,13.40
2023-05-22T22:59:55.664Z,13.40
2023-05-22T23:02:24.087Z,13.40
2023-05-22T23:04:52.565Z,13.30
2023-05-22T23:07:24.388Z,13.30
2023-05-22T23:09:52.665Z,13.40
2023-05-22T23:12:20.914Z,13.30
2023-05-22T23:14:50.598Z,13.30
2023-05-22T23:17:19.127Z,13.30
2023-05-22T23:19:47.503Z,13.20
2023-05-22T23:22:15.797Z,13.10
2023-05-22T23:24:45.526Z,13.10
2023-05-22T23:27:14.065Z,13.00
2023-05-22T23:29:42.894Z,13.00
2023-05-22T23:32:13.097Z,12.90
2023-05-22T23:34:43.534Z,13.00
2023-05-22T23:37:11.812Z,13.00
2023-05-22T23:39:40.489Z,13.10
2023-05-22T23:42:11.194Z,13.20
2023-05-22T23:44:39.508Z,13.20
2023-05-22T23:47:08.347Z,13.20
2023-05-22T23:49:36.960Z,13.10
2023-05-22T23:52:05.515Z,13.10
2023-05-22T23:54:33.729Z,13.10
2023-05-22T23:57:02.686Z,13.20
2023-05-22T23:59:32.366Z,13.20
